createdAt,value
2022-09-03T00:03:41.985Z,4.82
2022-09-03T00:08:41.443Z,4.80
2022-09-03T00:13:38.810Z,4.57
2022-09-03T00:18:36.226Z,4.10
2022-09-03T00:23:32.791Z,4.40
2022-09-03T00:28:30.036Z,4.22
2022-09-03T00:33:31.410Z,4.20
2022-09-03T00:38:28.535Z,4.63
2022-09-03T00:43:36.872Z,4.10
2022-09-03T00:48:37.415Z,4.03
2022-09-03T00:53:41.141Z,4.55
2022-09-03T00:59:05.059Z,4.03
2022-09-03T01:04:09.114Z,4.40
2022-09-03T01:09:23.434Z,4.32
2022-09-03T01:14:37.139Z,4.95
2022-09-03T01:20:06.091Z,4.63
2022-09-03T01:25:17.869Z,4.38
2022-09-03T01:30:20.633Z,4.32
2022-09-03T01:35:29.539Z,5.05
2022-09-03T01:40:34.592Z,4.90
2022-09-03T01:46:04.091Z,4.90
2022-09-03T01:51:21.232Z,4.80
2022-09-03T01:56:35.688Z,4.75
2022-09-03T02:01:34.559Z,4.82
2022-09-03T02:06:30.125Z,4.95
2022-09-03T02:11:28.590Z,5.07
2022-09-03T02:16:25.562Z,4.88
2022-09-03T02:21:22.711Z,5.18
2022-09-03T02:26:20.713Z,5.15
2022-09-03T02:31:14.209Z,5.10
2022-09-03T02:36:10.138Z,5.00
2022-09-03T02:41:05.507Z,4.93
2022-09-03T02:46:04.841Z,4.47
2022-09-03T02:50:58.254Z,5.07
2022-09-03T02:55:51.927Z,4.70
2022-09-03T03:00:49.577Z,4.35
2022-09-03T03:05:48.205Z,4.80
2022-09-03T03:10:42.347Z,4.78
2022-09-03T03:15:35.729Z,4.53
2022-09-03T03:25:46.160Z,4.97
2022-09-03T03:30:40.398Z,4.78
2022-09-03T03:35:35.283Z,4.65
2022-09-03T03:40:28.755Z,4.60
2022-09-03T03:45:22.217Z,5.15
2022-09-03T03:50:15.588Z,5.28
2022-09-03T03:55:11.078Z,5.35
2022-09-03T04:05:11.934Z,5.05
2022-09-03T04:10:06.763Z,4.80
2022-09-03T04:15:01.516Z,4.78
2022-09-03T04:19:54.747Z,4.95
2022-09-03T04:24:47.991Z,5.20
2022-09-03T04:29:41.279Z,5.20
2022-09-03T04:34:41.801Z,5.50
2022-09-03T04:39:36.411Z,5.28
2022-09-03T04:44:33.659Z,5.35
2022-09-03T04:49:27.497Z,6.03
2022-09-03T04:54:28.065Z,5.63
2022-09-03T04:59:24.716Z,4.47
2022-09-03T05:04:19.928Z,4.50
2022-09-03T05:09:13.680Z,4.47
2022-09-03T05:14:12.799Z,4.97
2022-09-03T05:19:08.265Z,5.27
2022-09-03T05:24:02.873Z,4.72
2022-09-03T05:28:57.684Z,5.07
2022-09-03T05:33:55.072Z,4.72
2022-09-03T05:38:56.578Z,4.82
2022-09-03T05:44:04.395Z,5.35
2022-09-03T05:49:06.269Z,5.78
2022-09-03T05:54:05.383Z,6.30
2022-09-03T05:59:11.057Z,6.00
2022-09-03T06:04:10.445Z,6.53
2022-09-03T06:09:05.798Z,6.43
2022-09-03T06:14:01.971Z,5.82
2022-09-03T06:18:56.571Z,5.28
2022-09-03T06:23:56.711Z,5.40
2022-09-03T06:28:55.820Z,6.18
2022-09-03T06:33:50.956Z,6.10
2022-09-03T06:38:45.022Z,6.88
2022-09-03T06:43:42.233Z,6.38
2022-09-03T06:48:36.909Z,6.90
2022-09-03T06:53:32.291Z,7.40
2022-09-03T06:58:26.208Z,6.65
2022-09-03T07:03:21.720Z,6.13
2022-09-03T07:08:14.956Z,6.63
2022-09-03T07:13:08.286Z,6.93
2022-09-03T07:18:01.978Z,5.95
2022-09-03T07:22:57.806Z,5.78
2022-09-03T07:27:51.348Z,6.20
2022-09-03T07:32:44.600Z,6.70
2022-09-03T07:37:40.312Z,6.50
2022-09-03T07:42:36.247Z,7.53
2022-09-03T07:47:32.740Z,8.60
2022-09-03T07:52:25.923Z,6.80
2022-09-03T07:57:19.736Z,6.05
2022-09-03T08:02:14.269Z,6.35
2022-09-03T08:07:07.525Z,6.68
2022-09-03T08:12:00.696Z,6.70
2022-09-03T08:16:54.038Z,7.88
2022-09-03T08:21:49.082Z,7.45
2022-09-03T08:26:50.410Z,7.03
2022-09-03T08:31:46.298Z,6.70
2022-09-03T08:36:41.633Z,6.80
2022-09-03T08:41:49.643Z,6.38
2022-09-03T08:46:54.361Z,6.13
2022-09-03T08:51:50.973Z,6.05
2022-09-03T08:56:47.623Z,5.70
2022-09-03T09:01:54.912Z,5.90
2022-09-03T09:06:56.848Z,5.57
2022-09-03T09:12:02.913Z,6.32
2022-09-03T09:17:15.783Z,5.82
2022-09-03T09:22:15.221Z,5.70
2022-09-03T09:27:15.935Z,5.30
2022-09-03T09:32:12.885Z,5.57
2022-09-03T09:37:09.352Z,5.38
2022-09-03T09:42:11.111Z,5.57
2022-09-03T09:47:10.542Z,5.32
2022-09-03T09:52:06.936Z,4.88
2022-09-03T09:57:02.527Z,5.00
2022-09-03T10:02:13.741Z,4.90
2022-09-03T10:07:24.654Z,5.10
2022-09-03T10:12:25.802Z,5.47
2022-09-03T10:17:36.994Z,5.07
2022-09-03T10:22:56.494Z,4.60
2022-09-03T10:27:59.822Z,4.53
2022-09-03T10:33:06.576Z,5.70
2022-09-03T10:38:11.853Z,4.38
2022-09-03T10:43:35.442Z,4.53
2022-09-03T10:49:03.019Z,4.22
2022-09-03T10:54:15.100Z,4.40
2022-09-03T10:59:30.697Z,4.60
2022-09-03T11:04:36.313Z,4.38
2022-09-03T11:09:39.310Z,4.35
2022-09-03T11:14:38.034Z,4.82
2022-09-03T11:19:37.535Z,4.60
2022-09-03T11:24:34.616Z,4.88
2022-09-03T11:29:38.279Z,4.10
2022-09-03T11:34:34.803Z,4.10
2022-09-03T11:39:36.442Z,3.90
2022-09-03T11:44:37.938Z,4.15
2022-09-03T11:49:51.001Z,4.35
2022-09-03T11:54:46.276Z,4.20
2022-09-03T11:59:40.766Z,3.83
2022-09-03T12:04:42.184Z,3.58
2022-09-03T12:10:00.600Z,3.40
2022-09-03T12:15:03.830Z,3.80
2022-09-03T12:19:59.180Z,3.85
2022-09-03T12:24:53.964Z,3.90
2022-09-03T12:30:00.156Z,3.60
2022-09-03T12:34:53.966Z,3.92
2022-09-03T12:40:09.732Z,3.55
2022-09-03T12:45:10.582Z,3.90
2022-09-03T12:50:10.963Z,3.50
2022-09-03T12:55:16.002Z,3.88
2022-09-03T13:00:12.019Z,4.40
2022-09-03T13:05:07.887Z,4.18
2022-09-03T13:10:08.220Z,4.00
2022-09-03T13:15:08.987Z,4.25
2022-09-03T13:20:19.849Z,4.40
2022-09-03T13:25:25.078Z,4.47
2022-09-03T13:30:23.192Z,3.75
2022-09-03T13:35:26.057Z,3.80
2022-09-03T13:40:27.525Z,4.25
2022-09-03T13:45:31.105Z,4.15
2022-09-03T13:50:28.409Z,5.47
2022-09-03T13:55:27.159Z,4.63
2022-09-03T14:00:29.290Z,4.05
2022-09-03T14:05:39.844Z,5.93
2022-09-03T14:10:45.770Z,4.53
2022-09-03T14:15:45.831Z,4.25
2022-09-03T14:20:45.375Z,4.65
2022-09-03T14:25:42.808Z,4.47
2022-09-03T14:30:44.976Z,5.28
2022-09-03T14:36:03.402Z,4.95
2022-09-03T14:41:07.145Z,5.50
2022-09-03T14:46:15.126Z,5.60
2022-09-03T14:51:24.605Z,5.13
2022-09-03T14:56:40.859Z,6.03
2022-09-03T15:01:39.435Z,5.75
2022-09-03T15:06:50.856Z,5.90
2022-09-03T15:11:54.113Z,6.22
2022-09-03T15:16:54.923Z,5.50
2022-09-03T15:22:01.510Z,5.80
2022-09-03T15:27:15.651Z,6.03
2022-09-03T15:32:20.020Z,6.35
2022-09-03T16:06:29.922Z,6.05
2022-09-03T16:12:47.146Z,5.78
2022-09-03T16:39:40.999Z,5.35
2022-09-03T16:46:35.511Z,6.78
2022-09-03T17:07:00.632Z,6.65
2022-09-03T17:12:48.989Z,6.95
2022-09-03T17:26:14.299Z,6.85
2022-09-03T17:59:40.307Z,7.60
2022-09-03T18:11:56.163Z,8.23
2022-09-03T18:25:11.708Z,8.02
2022-09-03T18:50:41.910Z,6.80
2022-09-03T18:56:39.113Z,7.50
2022-09-03T19:01:57.899Z,7.18
2022-09-03T19:55:18.787Z,6.85
2022-09-03T21:18:50.428Z,6.68
2022-09-03T21:38:13.465Z,6.70
2022-09-03T21:43:52.630Z,7.20
2022-09-03T21:49:18.255Z,7.13
2022-09-03T21:54:30.527Z,6.80
2022-09-03T21:59:49.120Z,7.50
2022-09-03T22:04:42.701Z,6.88
2022-09-03T22:10:06.115Z,6.82
2022-09-03T22:15:01.290Z,6.88
2022-09-03T22:19:55.174Z,7.15
2022-09-03T22:25:03.254Z,7.20
2022-09-03T22:30:20.290Z,7.05
2022-09-03T22:35:36.875Z,7.78
2022-09-03T22:40:40.589Z,7.43
2022-09-03T22:46:00.050Z,8.20
2022-09-03T22:51:01.649Z,8.23
2022-09-03T22:56:23.742Z,7.65
2022-09-03T23:01:22.585Z,8.18
2022-09-03T23:06:34.098Z,7.40
2022-09-03T23:11:44.079Z,7.90
2022-09-03T23:16:42.533Z,7.90
2022-09-03T23:21:41.191Z,8.35
2022-09-03T23:26:55.656Z,8.88
2022-09-03T23:32:22.210Z,8.93
2022-09-03T23:37:34.255Z,9.55
2022-09-03T23:42:55.718Z,9.20
2022-09-03T23:47:55.610Z,10.05
2022-09-03T23:53:28.444Z,8.82
2022-09-03T23:59:05.189Z,9.27
